Cocoa Beach, FL (32931)

11:08 PM EDT on August 28, 2015 (GMT -0400)
The Weather Reporter | | Change Station
CLOSE
Current Station
Personal Weather Station
Location: Merritt Island, FL
Elevation: 13 ft
Nearby Weather Stations

Elev 13 ft 28.36 °N, 80.66 °W | Updated 3 seconds ago

Clear
Clear
81.2 °F
Feels Like 89 °F
N
0.0
Wind Variable Wind from SW
Gusts 0.0 mph

Today
High -- | Low -- °F
--% Chance of Precip.
Yesterday
High -- | Low -- °F
Precip. -- in
6:58 AM 7:48 PM
Waxing Gibbous, 99% visible
Pressure 30.08 in
Visibility 10.0 miles
Clouds Scattered Clouds 1200 ft
Scattered Clouds 3100 ft
Heat Index 89 °F
Dew Point 78 °F
Humidity 90%
Rainfall 0.02 in
Snow Depth Not available.
UV 0 out of 12
Pollen 6.70 out of 12
Air Quality Not available.
Flu Activity Not available.
SPECI KCOF 290302Z AUTO 20001KT 10SM SCT012 SCT031 27/26 A3008 RMK AO2 RAE0259DZB0259E01RAB01E02
Pressure 30.08 in
Visibility 10.0 miles
Clouds Scattered Clouds 1200 ft
Scattered Clouds 3100 ft
Heat Index 89 °F
Dew Point 78 °F
Humidity 90%
Rainfall 0.02 in
Snow Depth Not available.
UV 0 out of 12
Pollen 6.70 out of 12
Air Quality Not available.
Flu Activity Not available.
SPECI KCOF 290302Z AUTO 20001KT 10SM SCT012 SCT031 27/26 A3008 RMK AO2 RAE0259DZB0259E01RAB01E02
Erika has become very unorganized in the face of strong wind shear in the eastern Caribbean Sea. The storm will pass directly over mountainous Hispaniola today, likely weakening it further. If the storm remains intact, it could reach an area favorable for strengthening before moving onto Florida by early next week. Follow the live blog

10-Day Weather Forecast

×

Almanac

Astronomy

Aug. 28, 2015 Rise Set
Actual Time
Civil Twilight
Nautical Twilight
Astronomical Twilight
Moon
Length of Visible Light
Length of Day
Tomorrow will be .
, % of the Moon is Illuminated

Today's Extremes

State Highs State Lows

Community

WunderPhotos

Upload Photos

1,850,593 photos uploaded!

WunderBlogs® & News

Nearby

Air Quality

  Air Quality AQ Index Pollutant
Not available.

Snow Depth

Station Depth Elevation

Earthquake Activity

City Distance Mag. Time & Date
Minimum magnitude displayed is 2.5.

Coastal Water Temperatures

Place Temperature

Stations

Nearby Weather Stations

Station Location Temp. Windchill Dew Point Humidity Wind Precip. Elev Updated Type